createdAt,value
2023-04-13T00:01:52.160Z,-0.30
2023-04-13T00:11:55.557Z,-0.60
2023-04-13T00:22:00.873Z,-0.70
2023-04-13T00:32:04.469Z,-0.90
2023-04-13T00:42:09.416Z,-1.10
2023-04-13T00:52:14.119Z,-1.20
2023-04-13T01:02:19.108Z,-1.10
2023-04-13T01:12:30.785Z,-1.20
2023-04-13T01:22:41.826Z,-1.20
2023-04-13T01:32:46.942Z,-1.10
2023-04-13T01:42:50.873Z,-1.20
2023-04-13T01:53:08.106Z,-1.20
2023-04-13T02:03:15.608Z,-1.20
2023-04-13T02:13:21.055Z,-1.30
2023-04-13T02:23:24.676Z,-1.50
2023-04-13T02:33:31.498Z,-1.40
2023-04-13T02:43:35.710Z,-1.20
2023-04-13T02:53:41.370Z,-0.90
2023-04-13T03:03:45.712Z,-0.70
2023-04-13T03:13:54.279Z,-0.50
2023-04-13T03:23:59.498Z,-0.70
2023-04-13T03:34:04.763Z,-0.80
2023-04-13T03:44:10.084Z,-0.50
2023-04-13T03:54:16.770Z,-0.40
2023-04-13T04:04:21.676Z,-0.20
2023-04-13T04:14:29.623Z,-0.10
2023-04-13T04:24:42.506Z,0.50
2023-04-13T04:34:52.783Z,0.90
2023-04-13T04:44:58.672Z,1.30
2023-04-13T04:55:07.455Z,1.60
2023-04-13T05:05:13.061Z,2.00
2023-04-13T05:15:18.074Z,2.70
2023-04-13T05:25:21.868Z,3.40
2023-04-13T05:35:28.119Z,4.30
2023-04-13T05:45:33.185Z,5.20
2023-04-13T05:55:47.575Z,6.00
2023-04-13T06:05:54.786Z,7.00
2023-04-13T06:16:00.432Z,9.30
2023-04-13T06:26:05.728Z,11.20
2023-04-13T06:36:25.652Z,11.90
2023-04-13T06:46:31.531Z,12.00
2023-04-13T06:56:43.380Z,12.30
2023-04-13T07:06:47.908Z,12.30
2023-04-13T07:16:53.422Z,12.60
2023-04-13T07:26:59.028Z,13.10
2023-04-13T07:37:03.890Z,13.90
2023-04-13T07:47:08.123Z,14.70
2023-04-13T07:57:13.240Z,15.50
2023-04-13T08:07:23.217Z,15.80
2023-04-13T08:17:28.221Z,15.70
2023-04-13T08:27:32.750Z,16.80
2023-04-13T08:37:39.577Z,17.20
2023-04-13T08:47:44.336Z,18.40
2023-04-13T08:57:51.880Z,18.90
2023-04-13T09:07:58.888Z,19.30
2023-04-13T09:18:12.709Z,20.00
2023-04-13T09:28:21.976Z,21.00
2023-04-13T09:38:33.113Z,26.30
2023-04-13T09:48:36.583Z,32.90
2023-04-13T09:58:46.325Z,34.70
2023-04-13T10:08:49.854Z,30.50
2023-04-13T10:19:02.049Z,28.90
2023-04-13T10:29:06.666Z,29.20
2023-04-13T10:39:11.908Z,29.10
2023-04-13T10:49:15.421Z,28.10
2023-04-13T10:59:21.181Z,32.10
2023-04-13T11:09:24.653Z,41.10
2023-04-13T11:19:29.460Z,46.70
2023-04-13T11:29:33.204Z,45.40
2023-04-13T11:39:40.040Z,46.20
2023-04-13T11:49:47.942Z,47.50
2023-04-13T11:59:54.347Z,46.50
2023-04-13T12:09:59.571Z,47.80
2023-04-13T12:20:16.301Z,46.20
2023-04-13T12:30:21.761Z,49.00
2023-04-13T12:40:26.564Z,48.90
2023-04-13T12:50:31.319Z,45.50
2023-04-13T13:00:37.325Z,42.20
2023-04-13T13:10:43.117Z,34.90
2023-04-13T13:20:49.426Z,30.10
2023-04-13T13:30:52.804Z,27.50
2023-04-13T13:40:57.636Z,23.80
2023-04-13T13:51:02.094Z,21.80
2023-04-13T14:01:09.003Z,20.10
2023-04-13T14:11:12.751Z,19.00
2023-04-13T14:21:21.387Z,18.40
2023-04-13T14:31:24.821Z,17.30
2023-04-13T14:41:29.657Z,16.40
2023-04-13T14:51:33.654Z,16.10
2023-04-13T15:01:38.377Z,16.20
2023-04-13T15:11:41.972Z,15.80
2023-04-13T15:21:46.721Z,14.50
2023-04-13T15:31:51.866Z,13.80
2023-04-13T15:41:57.886Z,13.10
2023-04-13T15:52:01.348Z,12.70
2023-04-13T16:02:06.257Z,12.40
2023-04-13T16:12:10.974Z,12.10
2023-04-13T16:22:16.388Z,11.80
2023-04-13T16:32:19.900Z,11.50
2023-04-13T16:42:24.731Z,11.20
2023-04-13T16:52:28.174Z,10.90
2023-04-13T17:02:33.273Z,10.70
2023-04-13T17:12:37.370Z,10.50
2023-04-13T17:22:42.461Z,10.40
2023-04-13T17:32:46.466Z,10.20
2023-04-13T17:42:51.639Z,10.10
2023-04-13T17:52:55.067Z,10.00
2023-04-13T18:03:01.611Z,9.80
2023-04-13T18:13:06.606Z,9.70
2023-04-13T18:23:11.470Z,9.60
2023-04-13T18:33:14.998Z,9.50
2023-04-13T18:43:20.010Z,9.30
2023-04-13T18:53:23.413Z,9.10
2023-04-13T19:03:28.430Z,9.10
2023-04-13T19:13:32.187Z,9.00
2023-04-13T19:23:39.638Z,8.90
2023-04-13T19:33:46.194Z,8.90
2023-04-13T19:43:52.337Z,8.80
2023-04-13T19:53:57.657Z,8.70
2023-04-13T20:04:05.164Z,8.60
2023-04-13T20:14:09.785Z,8.40
2023-04-13T20:24:14.683Z,8.40
2023-04-13T20:34:20.246Z,8.40
2023-04-13T20:44:25.831Z,8.30
2023-04-13T20:54:29.526Z,8.30
2023-04-13T21:04:34.411Z,8.20
2023-04-13T21:14:37.759Z,8.10
2023-04-13T21:24:42.585Z,8.10
2023-04-13T21:34:46.267Z,8.00
2023-04-13T21:44:51.092Z,7.90
2023-04-13T21:54:54.568Z,7.80
2023-04-13T22:04:59.305Z,7.80
2023-04-13T22:15:02.828Z,7.80
2023-04-13T22:25:08.279Z,7.70
2023-04-13T22:35:12.239Z,7.70
2023-04-13T22:45:16.959Z,7.70
2023-04-13T22:55:21.198Z,7.60
2023-04-13T23:05:26.018Z,7.60
2023-04-13T23:15:29.451Z,7.50
2023-04-13T23:25:34.171Z,7.60
2023-04-13T23:35:37.545Z,7.70
2023-04-13T23:45:42.740Z,7.70
2023-04-13T23:55:46.210Z,7.70
